createdAt,value
2018-07-28T00:01:32.071Z,4.77
2018-07-28T00:04:00.481Z,4.60
2018-07-28T00:06:28.939Z,4.77
2018-07-28T00:08:57.340Z,4.30
2018-07-28T00:11:25.819Z,4.10
2018-07-28T00:13:54.279Z,4.30
2018-07-28T00:16:22.778Z,4.00
2018-07-28T00:18:52.059Z,4.10
2018-07-28T00:21:20.487Z,3.77
2018-07-28T00:23:48.941Z,4.00
2018-07-28T00:26:17.732Z,4.20
2018-07-28T00:28:47.423Z,4.67
2018-07-28T00:31:15.865Z,4.70
2018-07-28T00:33:44.472Z,4.00
2018-07-28T00:36:12.971Z,4.30
2018-07-28T00:38:41.439Z,4.10
2018-07-28T00:41:09.935Z,4.27
2018-07-28T00:43:38.385Z,4.07
2018-07-28T00:46:06.789Z,3.90
2018-07-28T00:48:35.386Z,3.73
2018-07-28T00:51:03.839Z,4.13
2018-07-28T00:53:32.339Z,3.97
2018-07-28T00:56:00.786Z,4.50
2018-07-28T00:58:29.268Z,4.73
2018-07-28T01:00:57.680Z,4.67
2018-07-28T01:03:26.134Z,4.57
2018-07-28T01:05:54.745Z,4.97
2018-07-28T01:08:23.160Z,4.70
2018-07-28T01:10:51.620Z,4.90
2018-07-28T01:13:20.082Z,4.70
2018-07-28T01:15:48.424Z,4.93
2018-07-28T01:18:17.311Z,5.10
2018-07-28T01:20:45.736Z,4.90
2018-07-28T01:23:14.129Z,5.57
2018-07-28T01:25:42.676Z,4.87
2018-07-28T01:28:11.146Z,4.57
2018-07-28T01:30:39.587Z,5.43
2018-07-28T01:33:08.037Z,5.37
2018-07-28T01:35:36.474Z,5.30
2018-07-28T01:38:05.290Z,5.60
2018-07-28T01:40:33.884Z,5.73
2018-07-28T01:43:02.798Z,5.73
2018-07-28T01:45:31.277Z,6.10
2018-07-28T01:47:59.808Z,5.37
2018-07-28T01:50:28.499Z,5.50
2018-07-28T01:52:56.940Z,5.57
2018-07-28T01:55:25.451Z,5.93
2018-07-28T01:57:53.893Z,6.60
2018-07-28T02:00:22.457Z,6.33
2018-07-28T02:02:50.996Z,6.47
2018-07-28T02:05:19.395Z,6.00
2018-07-28T02:07:47.909Z,6.10
2018-07-28T02:10:16.420Z,5.33
2018-07-28T02:12:44.900Z,6.57
2018-07-28T02:15:13.301Z,7.13
2018-07-28T02:17:41.829Z,7.37
2018-07-28T02:20:10.353Z,6.57
2018-07-28T02:22:38.890Z,6.83
2018-07-28T02:25:08.882Z,7.10
2018-07-28T02:27:37.495Z,6.90
2018-07-28T02:30:06.651Z,7.20
2018-07-28T02:32:35.578Z,6.93
2018-07-28T02:35:04.749Z,7.33
2018-07-28T02:37:33.273Z,7.70
2018-07-28T02:40:01.782Z,7.60
2018-07-28T02:42:30.171Z,7.63
2018-07-28T02:44:58.567Z,7.30
2018-07-28T02:47:27.050Z,7.60
2018-07-28T02:49:55.678Z,7.90
2018-07-28T02:52:24.324Z,7.57
2018-07-28T02:54:52.986Z,7.93
2018-07-28T02:57:21.473Z,8.00
2018-07-28T02:59:49.936Z,8.00
2018-07-28T03:02:18.433Z,7.93
2018-07-28T03:04:46.888Z,8.00
2018-07-28T03:07:15.290Z,8.23
2018-07-28T03:09:43.834Z,7.40
2018-07-28T03:12:12.286Z,8.37
2018-07-28T03:14:40.830Z,8.37
2018-07-28T03:17:09.983Z,8.37
2018-07-28T03:19:38.609Z,8.93
2018-07-28T03:22:07.464Z,8.83
2018-07-28T03:24:36.200Z,8.00
2018-07-28T03:27:05.089Z,8.97
2018-07-28T03:29:36.626Z,8.30
2018-07-28T03:32:05.128Z,8.33
2018-07-28T03:34:33.608Z,9.73
2018-07-28T03:37:02.174Z,8.57
2018-07-28T03:39:31.341Z,9.53
2018-07-28T03:42:00.045Z,9.83
2018-07-28T03:44:28.507Z,8.17
2018-07-28T03:46:57.000Z,8.53
2018-07-28T03:49:25.450Z,9.57
2018-07-28T03:51:53.871Z,9.90
2018-07-28T03:54:22.323Z,8.90
2018-07-28T03:56:50.726Z,9.60
2018-07-28T03:59:19.174Z,9.23
2018-07-28T04:01:47.594Z,9.77
2018-07-28T04:04:16.075Z,9.50
2018-07-28T04:06:44.463Z,10.70
2018-07-28T04:09:12.987Z,10.43
2018-07-28T04:11:41.444Z,10.00
2018-07-28T04:14:09.814Z,9.67
2018-07-28T04:16:38.623Z,10.90
2018-07-28T04:19:07.710Z,9.93
2018-07-28T04:21:36.115Z,11.47
2018-07-28T04:24:04.762Z,11.00
2018-07-28T04:26:33.399Z,12.13
2018-07-28T04:29:02.912Z,10.87
2018-07-28T04:31:31.644Z,10.90
2018-07-28T04:34:00.367Z,11.33
2018-07-28T04:36:28.836Z,11.90
2018-07-28T04:38:57.228Z,12.33
2018-07-28T04:41:25.840Z,12.33
2018-07-28T04:43:54.307Z,12.00
2018-07-28T04:46:23.627Z,12.13
2018-07-28T04:48:52.585Z,11.90
2018-07-28T04:51:21.584Z,12.00
2018-07-28T04:53:49.997Z,11.00
2018-07-28T04:56:18.773Z,10.87
2018-07-28T04:58:47.985Z,10.50
2018-07-28T05:01:16.476Z,10.70
2018-07-28T05:03:44.959Z,10.70
2018-07-28T05:06:13.534Z,10.30
2018-07-28T05:08:42.615Z,10.37
2018-07-28T05:11:11.980Z,10.07
2018-07-28T05:13:40.543Z,10.60
2018-07-28T05:16:08.992Z,11.47
2018-07-28T05:18:37.376Z,10.70
2018-07-28T05:21:07.419Z,10.43
2018-07-28T05:23:40.060Z,9.83
2018-07-28T05:26:09.071Z,10.50
2018-07-28T05:28:37.889Z,9.70
2018-07-28T05:31:06.805Z,9.90
2018-07-28T05:33:35.606Z,9.77
2018-07-28T05:36:04.300Z,9.80
2018-07-28T05:38:34.702Z,9.10
2018-07-28T05:41:03.418Z,9.33
2018-07-28T05:43:37.502Z,10.20
2018-07-28T05:46:09.698Z,9.87
2018-07-28T05:48:38.948Z,8.67
2018-07-28T05:51:07.406Z,8.67
2018-07-28T05:53:39.512Z,8.60
2018-07-28T05:56:12.040Z,8.87
2018-07-28T05:58:42.654Z,9.20
2018-07-28T06:01:11.132Z,8.53
2018-07-28T06:03:40.379Z,8.53
2018-07-28T06:06:10.606Z,9.05
2018-07-28T06:08:41.631Z,9.20
2018-07-28T06:11:14.431Z,9.23
2018-07-28T06:13:45.240Z,8.50
2018-07-28T06:16:15.900Z,9.25
2018-07-28T06:18:44.959Z,8.90
2018-07-28T06:21:13.414Z,8.28
2018-07-28T06:23:42.235Z,9.25
2018-07-28T06:26:15.528Z,9.93
2018-07-28T06:28:47.707Z,9.45
2018-07-28T06:31:17.517Z,8.90
2018-07-28T06:33:47.236Z,8.85
2018-07-28T06:36:15.871Z,9.20
2018-07-28T06:38:45.810Z,9.13
2018-07-28T06:41:14.228Z,9.18
2018-07-28T06:43:42.824Z,9.40
2018-07-28T06:46:11.969Z,9.48
2018-07-28T06:48:40.458Z,9.08
2018-07-28T06:51:08.860Z,8.28
2018-07-28T06:53:37.382Z,7.90
2018-07-28T06:56:05.896Z,8.05
2018-07-28T06:58:34.415Z,7.45
2018-07-28T07:01:02.761Z,8.40
2018-07-28T07:03:31.232Z,8.25
2018-07-28T07:05:59.798Z,8.15
2018-07-28T07:08:28.129Z,8.65
2018-07-28T07:10:56.600Z,6.75
2018-07-28T07:13:25.272Z,7.97
2018-07-28T07:15:53.781Z,7.10
2018-07-28T07:18:22.255Z,6.87
2018-07-28T07:20:50.724Z,7.62
2018-07-28T07:23:19.183Z,7.42
2018-07-28T07:25:47.656Z,6.72
2018-07-28T07:28:16.059Z,6.28
2018-07-28T07:30:44.569Z,6.78
2018-07-28T07:33:13.564Z,6.40
2018-07-28T07:35:42.075Z,6.62
2018-07-28T07:38:10.521Z,5.83
2018-07-28T07:40:39.341Z,5.95
2018-07-28T07:43:07.994Z,5.70
2018-07-28T07:45:36.588Z,6.22
2018-07-28T07:48:05.276Z,6.12
2018-07-28T07:50:33.793Z,5.92
2018-07-28T07:53:02.309Z,6.10
2018-07-28T07:55:30.759Z,6.22
2018-07-28T07:57:59.266Z,7.05
2018-07-28T08:00:27.716Z,5.80
2018-07-28T08:02:56.647Z,7.00
2018-07-28T08:05:26.418Z,6.90
2018-07-28T08:07:55.363Z,6.62
2018-07-28T08:10:24.847Z,6.78
2018-07-28T08:12:53.327Z,6.30
2018-07-28T08:15:22.168Z,6.08
2018-07-28T08:17:50.797Z,6.75
2018-07-28T08:20:19.748Z,6.75
2018-07-28T08:22:48.103Z,6.60
2018-07-28T08:25:16.731Z,6.35
2018-07-28T08:27:45.490Z,6.33
2018-07-28T08:30:13.902Z,6.55
2018-07-28T08:32:42.455Z,7.08
2018-07-28T08:38:03.596Z,7.05
2018-07-28T08:40:32.151Z,7.15
2018-07-28T08:43:00.543Z,6.58
2018-07-28T08:45:29.128Z,7.55
2018-07-28T08:47:57.630Z,6.90
2018-07-28T08:50:26.091Z,6.37
2018-07-28T08:52:55.680Z,6.95
2018-07-28T08:55:24.090Z,7.67
2018-07-28T08:57:52.749Z,7.47
2018-07-28T09:00:21.429Z,6.75
2018-07-28T09:02:49.977Z,7.30
2018-07-28T09:05:18.407Z,6.87
2018-07-28T09:07:46.865Z,7.28
2018-07-28T09:10:15.287Z,6.60
2018-07-28T09:12:43.830Z,7.53
2018-07-28T09:15:12.680Z,7.40
2018-07-28T09:17:41.816Z,6.67
2018-07-28T09:20:10.328Z,6.85
2018-07-28T09:22:39.350Z,7.10
2018-07-28T09:25:08.319Z,6.72
2018-07-28T09:27:37.122Z,6.30
2018-07-28T09:30:06.527Z,6.47
2018-07-28T09:32:35.084Z,6.55
2018-07-28T09:35:03.626Z,6.10
2018-07-28T09:37:32.024Z,6.97
2018-07-28T09:40:00.528Z,6.67
2018-07-28T09:42:28.938Z,6.08
2018-07-28T09:44:57.374Z,5.90
2018-07-28T09:47:25.881Z,7.22
2018-07-28T09:49:54.503Z,6.62
2018-07-28T09:52:23.308Z,7.00
2018-07-28T09:54:51.816Z,6.55
2018-07-28T09:57:20.475Z,6.10
2018-07-28T09:59:49.241Z,6.53
2018-07-28T10:02:19.028Z,6.90
2018-07-28T10:04:47.438Z,6.30
2018-07-28T10:07:15.823Z,6.30
2018-07-28T10:09:44.267Z,6.10
2018-07-28T10:12:13.062Z,6.55
2018-07-28T10:14:41.507Z,6.22
2018-07-28T10:17:09.870Z,5.92
2018-07-28T10:19:38.452Z,5.85
2018-07-28T10:22:07.082Z,7.05
2018-07-28T10:24:35.786Z,6.12
2018-07-28T10:27:04.453Z,6.05
2018-07-28T10:29:32.859Z,7.10
2018-07-28T10:32:01.314Z,6.22
2018-07-28T10:34:29.861Z,6.65
2018-07-28T10:36:58.237Z,6.67
2018-07-28T10:39:26.746Z,5.60
2018-07-28T10:41:55.490Z,6.40
2018-07-28T10:44:23.844Z,6.20
2018-07-28T10:46:52.420Z,5.90
2018-07-28T10:49:20.932Z,6.22
2018-07-28T10:51:49.481Z,6.67
2018-07-28T10:54:18.126Z,6.25
2018-07-28T10:56:46.816Z,6.03
2018-07-28T10:59:15.671Z,5.87
2018-07-28T11:01:44.304Z,5.55
2018-07-28T11:04:12.869Z,6.30
2018-07-28T11:06:41.423Z,5.80
2018-07-28T11:09:10.598Z,5.92
2018-07-28T11:11:39.600Z,6.28
2018-07-28T11:14:08.509Z,6.65
2018-07-28T11:16:37.300Z,6.58
2018-07-28T11:19:05.909Z,6.22
2018-07-28T11:21:34.647Z,5.75
2018-07-28T11:24:03.538Z,6.40
2018-07-28T11:26:32.040Z,6.00
2018-07-28T11:29:02.077Z,6.45
2018-07-28T11:31:41.774Z,6.08
2018-07-28T11:34:21.734Z,6.25
2018-07-28T11:37:01.354Z,6.58
2018-07-28T11:39:41.010Z,5.90
2018-07-28T11:42:20.629Z,6.35
2018-07-28T11:45:09.505Z,6.00
2018-07-28T11:47:38.064Z,6.45
2018-07-28T11:50:06.728Z,6.30
2018-07-28T11:52:35.679Z,6.50
2018-07-28T11:55:04.603Z,6.58
2018-07-28T11:57:33.123Z,5.85
2018-07-28T12:00:01.566Z,6.28
2018-07-28T12:02:30.300Z,6.15
2018-07-28T12:04:58.766Z,5.35
2018-07-28T12:07:27.352Z,6.10
2018-07-28T12:09:56.222Z,6.00
2018-07-28T12:12:24.743Z,5.20
2018-07-28T12:14:53.222Z,5.83
2018-07-28T12:17:21.750Z,5.42
2018-07-28T12:19:50.288Z,5.97
2018-07-28T12:22:18.957Z,5.62
2018-07-28T12:24:47.490Z,6.15
2018-07-28T12:27:15.965Z,5.53
2018-07-28T12:29:44.512Z,5.40
2018-07-28T12:32:12.972Z,5.90
2018-07-28T12:34:41.519Z,5.62
2018-07-28T12:37:09.907Z,5.45
2018-07-28T12:39:38.349Z,5.67
2018-07-28T12:42:06.865Z,5.17
2018-07-28T12:44:35.380Z,4.90
2018-07-28T12:47:03.887Z,5.50
2018-07-28T12:49:32.514Z,6.00
2018-07-28T12:52:01.555Z,5.20
2018-07-28T12:54:30.244Z,5.30
2018-07-28T12:56:58.827Z,6.92
2018-07-28T12:59:27.380Z,9.35
2018-07-28T13:01:55.927Z,14.40
2018-07-28T13:04:24.981Z,10.70
2018-07-28T13:06:53.471Z,8.87
2018-07-28T13:09:22.400Z,9.23
2018-07-28T13:11:51.482Z,9.17
2018-07-28T13:14:20.972Z,10.57
2018-07-28T13:16:49.670Z,11.47
2018-07-28T13:19:18.302Z,11.83
2018-07-28T13:21:46.835Z,12.80
2018-07-28T13:24:18.475Z,12.57
2018-07-28T13:26:48.155Z,12.10
2018-07-28T13:29:17.577Z,12.37
2018-07-28T13:31:46.283Z,12.90
2018-07-28T13:34:15.058Z,11.73
2018-07-28T13:36:44.207Z,12.03
2018-07-28T13:39:12.979Z,14.40
2018-07-28T13:41:41.643Z,15.83
2018-07-28T13:44:10.285Z,17.47
2018-07-28T13:46:38.949Z,17.77
2018-07-28T13:49:07.891Z,15.17
2018-07-28T13:51:36.531Z,15.10
2018-07-28T13:54:04.932Z,13.40
2018-07-28T13:56:34.234Z,14.00
2018-07-28T13:59:02.877Z,14.40
2018-07-28T14:01:31.335Z,14.50
2018-07-28T14:03:59.852Z,15.67
2018-07-28T14:06:28.325Z,14.23
2018-07-28T14:08:56.720Z,13.50
2018-07-28T14:11:25.195Z,15.47
2018-07-28T14:13:53.791Z,14.23
2018-07-28T14:16:22.307Z,15.23
2018-07-28T14:18:50.824Z,15.03
2018-07-28T14:21:19.435Z,14.50
2018-07-28T14:23:47.963Z,15.40
2018-07-28T14:26:16.356Z,15.93
2018-07-28T14:28:44.787Z,14.20
2018-07-28T14:31:13.212Z,15.40
2018-07-28T14:33:41.607Z,15.47
2018-07-28T14:36:10.045Z,15.33
2018-07-28T14:38:38.576Z,14.57
2018-07-28T14:41:07.303Z,14.70
2018-07-28T14:43:35.807Z,14.77
2018-07-28T14:46:04.341Z,14.47
2018-07-28T14:48:32.813Z,13.90
2018-07-28T14:51:01.275Z,9.57
2018-07-28T14:53:29.748Z,9.37
2018-07-28T14:55:58.231Z,9.20
2018-07-28T14:58:26.714Z,8.40
2018-07-28T15:00:55.550Z,8.03
2018-07-28T15:03:24.150Z,8.40
2018-07-28T15:05:52.750Z,7.53
2018-07-28T15:08:21.255Z,7.63
2018-07-28T15:10:49.633Z,6.90
2018-07-28T15:13:19.373Z,6.77
2018-07-28T15:15:47.992Z,7.23
2018-07-28T15:18:17.093Z,6.43
2018-07-28T15:20:46.337Z,6.40
2018-07-28T15:23:15.031Z,6.47
2018-07-28T15:25:43.548Z,6.67
2018-07-28T15:28:12.493Z,6.90
2018-07-28T15:30:40.916Z,6.50
2018-07-28T15:33:09.510Z,5.62
2018-07-28T15:35:38.662Z,6.40
2018-07-28T15:38:07.232Z,7.20
2018-07-28T15:40:35.889Z,6.57
2018-07-28T15:43:04.716Z,6.72
2018-07-28T15:45:33.226Z,6.97
2018-07-28T15:48:01.810Z,6.20
2018-07-28T15:50:30.368Z,7.20
2018-07-28T15:52:58.747Z,7.37
2018-07-28T15:55:27.194Z,7.13
2018-07-28T15:57:55.641Z,7.75
2018-07-28T16:00:24.012Z,6.78
2018-07-28T16:02:52.434Z,7.20
2018-07-28T16:05:20.843Z,8.30
2018-07-28T16:07:50.241Z,7.50
2018-07-28T16:10:18.768Z,6.92
2018-07-28T16:12:47.242Z,7.10
2018-07-28T16:15:15.620Z,7.20
2018-07-28T16:17:44.023Z,7.47
2018-07-28T16:20:12.554Z,7.65
2018-07-28T16:22:40.865Z,8.00
2018-07-28T16:25:09.240Z,8.03
2018-07-28T16:27:37.877Z,7.10
2018-07-28T16:30:07.751Z,7.60
2018-07-28T16:32:36.109Z,7.97
2018-07-28T16:35:04.671Z,7.78
2018-07-28T16:37:33.093Z,7.20
2018-07-28T16:40:02.138Z,7.62
2018-07-28T16:42:30.503Z,8.53
2018-07-28T16:44:59.603Z,9.53
2018-07-28T16:47:28.323Z,9.40
2018-07-28T16:49:56.749Z,8.58
2018-07-28T16:52:25.183Z,8.95
2018-07-28T16:54:53.652Z,8.35
2018-07-28T16:57:22.396Z,9.25
2018-07-28T16:59:50.860Z,10.58
2018-07-28T17:02:19.388Z,10.08
2018-07-28T17:04:48.447Z,9.50
2018-07-28T17:07:16.979Z,8.53
2018-07-28T17:09:45.345Z,8.25
2018-07-28T17:12:13.890Z,9.03
2018-07-28T17:14:42.346Z,9.48
2018-07-28T17:17:10.869Z,9.55
2018-07-28T17:19:39.576Z,10.10
2018-07-28T17:22:08.606Z,8.98
2018-07-28T17:24:37.119Z,8.65
2018-07-28T17:27:05.882Z,9.18
2018-07-28T17:29:34.380Z,8.53
2018-07-28T17:32:02.969Z,9.23
2018-07-28T17:34:31.648Z,8.80
2018-07-28T17:37:00.081Z,10.08
2018-07-28T17:39:28.657Z,9.35
2018-07-28T17:41:57.065Z,9.83
2018-07-28T17:44:25.513Z,10.32
2018-07-28T17:46:54.162Z,9.55
2018-07-28T17:49:22.644Z,9.00
2018-07-28T17:51:51.040Z,8.95
2018-07-28T17:54:19.718Z,9.40
2018-07-28T17:56:48.185Z,9.28
2018-07-28T17:59:16.527Z,8.65
2018-07-28T18:01:44.879Z,9.10
2018-07-28T18:04:13.301Z,9.33
2018-07-28T18:06:41.767Z,8.30
2018-07-28T18:09:11.045Z,18.50
2018-07-28T18:11:39.508Z,16.90
2018-07-28T18:14:08.036Z,17.80
2018-07-28T18:16:36.581Z,19.27
2018-07-28T18:19:05.041Z,17.80
2018-07-28T18:21:33.507Z,15.53
2018-07-28T18:24:02.008Z,13.53
2018-07-28T18:26:37.480Z,13.85
2018-07-28T18:29:08.668Z,13.88
2018-07-28T18:31:37.378Z,14.25
2018-07-28T18:34:05.971Z,13.35
2018-07-28T18:36:34.873Z,9.85
2018-07-28T18:39:03.844Z,10.13
2018-07-28T18:41:32.512Z,10.13
2018-07-28T18:44:02.280Z,10.85
2018-07-28T18:46:30.836Z,12.13
2018-07-28T18:48:59.407Z,10.93
2018-07-28T18:51:27.824Z,11.05
2018-07-28T18:53:56.456Z,11.43
2018-07-28T18:56:25.030Z,11.20
2018-07-28T18:58:53.772Z,10.90
2018-07-28T19:01:22.362Z,10.47
2018-07-28T19:03:51.287Z,10.57
2018-07-28T19:06:20.310Z,9.50
2018-07-28T19:08:54.583Z,9.80
2018-07-28T19:11:23.255Z,9.77
2018-07-28T19:13:56.984Z,10.30
2018-07-28T19:16:25.539Z,10.67
2018-07-28T19:18:59.342Z,10.33
2018-07-28T19:21:28.216Z,10.57
2018-07-28T19:24:01.435Z,12.13
2018-07-28T19:26:30.720Z,11.67
2018-07-28T19:29:04.603Z,11.90
2018-07-28T19:31:33.660Z,11.40
2018-07-28T19:34:02.245Z,12.67
2018-07-28T19:36:36.270Z,11.83
2018-07-28T19:39:07.246Z,11.13
2018-07-28T19:41:41.034Z,11.27
2018-07-28T19:44:10.887Z,12.00
2018-07-28T19:46:39.527Z,10.90
2018-07-28T19:49:08.567Z,10.43
2018-07-28T19:51:37.156Z,11.27
2018-07-28T19:54:05.796Z,9.23
2018-07-28T19:56:34.505Z,8.63
2018-07-28T19:59:03.376Z,7.27
2018-07-28T20:01:32.012Z,4.50
2018-07-28T20:04:00.502Z,4.13
2018-07-28T20:06:29.212Z,3.50
2018-07-28T20:08:58.406Z,2.30
2018-07-28T20:11:26.865Z,2.23
2018-07-28T20:13:55.595Z,2.17
2018-07-28T20:16:24.237Z,2.33
2018-07-28T20:18:52.686Z,2.40
2018-07-28T20:21:21.460Z,2.30
2018-07-28T20:23:49.950Z,2.37
2018-07-28T20:26:18.617Z,3.10
2018-07-28T20:28:47.299Z,3.27
2018-07-28T20:31:15.858Z,3.00
2018-07-28T20:33:44.385Z,2.50
2018-07-28T20:36:13.608Z,3.23
2018-07-28T20:38:42.129Z,3.07
2018-07-28T20:41:10.662Z,3.40
2018-07-28T20:43:39.270Z,3.33
2018-07-28T20:46:07.819Z,3.20
2018-07-28T20:48:36.645Z,3.70
2018-07-28T20:51:05.187Z,3.30
2018-07-28T20:53:33.827Z,3.67
2018-07-28T20:56:06.176Z,3.57
2018-07-28T20:58:35.395Z,3.73
2018-07-28T21:01:04.956Z,3.53
2018-07-28T21:03:33.659Z,3.57
2018-07-28T21:06:02.268Z,4.80
2018-07-28T21:08:30.941Z,4.30
2018-07-28T21:10:59.932Z,4.50
2018-07-28T21:13:28.668Z,4.83
2018-07-28T21:15:57.366Z,5.47
2018-07-28T21:18:26.233Z,5.93
2018-07-28T21:20:54.836Z,5.53
2018-07-28T21:23:23.321Z,5.40
2018-07-28T21:25:51.854Z,5.33
2018-07-28T21:28:20.463Z,5.37
2018-07-28T21:30:49.647Z,5.60
2018-07-28T21:33:18.412Z,5.20
2018-07-28T21:35:47.368Z,4.80
2018-07-28T21:38:16.091Z,5.17
2018-07-28T21:40:44.955Z,5.47
2018-07-28T21:43:13.513Z,6.43
2018-07-28T21:45:42.354Z,6.57
2018-07-28T21:48:11.038Z,5.73
2018-07-28T21:50:41.416Z,5.70
2018-07-28T21:53:10.780Z,7.10
2018-07-28T21:55:39.746Z,5.77
2018-07-28T21:58:09.170Z,5.77
2018-07-28T22:00:43.197Z,5.70
2018-07-28T22:03:11.695Z,5.47
2018-07-28T22:05:40.209Z,5.33
2018-07-28T22:08:08.861Z,5.37
2018-07-28T22:10:37.350Z,5.60
2018-07-28T22:13:06.183Z,6.10
2018-07-28T22:15:35.395Z,5.63
2018-07-28T22:18:04.362Z,5.07
2018-07-28T22:20:32.801Z,5.10
2018-07-28T22:23:01.970Z,4.57
2018-07-28T22:25:30.348Z,5.00
2018-07-28T22:27:59.972Z,5.37
2018-07-28T22:30:29.677Z,5.30
2018-07-28T22:32:58.301Z,5.50
2018-07-28T22:35:26.821Z,6.40
2018-07-28T22:37:56.849Z,6.90
2018-07-28T22:40:25.987Z,6.70
2018-07-28T22:42:55.324Z,5.90
2018-07-28T22:45:23.973Z,5.60
2018-07-28T22:47:52.509Z,5.67
2018-07-28T22:50:21.111Z,6.30
2018-07-28T22:52:49.617Z,6.20
2018-07-28T22:55:18.179Z,7.20
2018-07-28T22:57:46.769Z,7.57
2018-07-28T23:00:15.298Z,7.37
2018-07-28T23:02:44.218Z,8.27
2018-07-28T23:05:12.928Z,8.67
2018-07-28T23:07:41.465Z,7.77
2018-07-28T23:10:10.120Z,9.40
2018-07-28T23:12:38.694Z,9.00
2018-07-28T23:15:07.212Z,9.37
2018-07-28T23:17:35.950Z,10.20
2018-07-28T23:20:05.270Z,9.17
2018-07-28T23:22:33.839Z,10.40
2018-07-28T23:25:03.603Z,11.93
2018-07-28T23:27:32.292Z,11.97
2018-07-28T23:30:00.802Z,12.43
2018-07-28T23:32:29.426Z,12.53
2018-07-28T23:34:59.274Z,12.33
2018-07-28T23:37:27.722Z,11.77
2018-07-28T23:39:56.139Z,13.77
2018-07-28T23:42:24.806Z,12.90
2018-07-28T23:44:53.425Z,13.10
2018-07-28T23:47:23.302Z,14.40
2018-07-28T23:49:52.143Z,13.70
2018-07-28T23:52:20.574Z,12.43
2018-07-28T23:54:49.163Z,12.47
2018-07-28T23:57:17.637Z,12.57
2018-07-28T23:59:46.331Z,13.60
